createdAt,value
2022-10-28T00:01:29.633Z,22.90
2022-10-28T00:03:58.546Z,33.70
2022-10-28T00:06:30.770Z,35.17
2022-10-28T00:08:57.891Z,23.25
2022-10-28T00:11:27.723Z,23.13
2022-10-28T00:13:55.946Z,20.38
2022-10-28T00:16:25.775Z,19.52
2022-10-28T00:18:54.284Z,18.02
2022-10-28T00:21:24.239Z,18.13
2022-10-28T00:23:51.001Z,18.08
2022-10-28T00:26:20.012Z,18.15
2022-10-28T00:28:52.338Z,17.60
2022-10-28T00:31:20.281Z,18.40
2022-10-28T00:33:47.197Z,16.98
2022-10-28T00:36:20.382Z,17.25
2022-10-28T00:38:48.345Z,16.67
2022-10-28T00:41:18.283Z,17.08
2022-10-28T00:44:23.913Z,16.60
2022-10-28T00:46:53.245Z,16.83
2022-10-28T00:49:30.734Z,17.02
2022-10-28T00:52:07.271Z,16.40
2022-10-28T00:54:34.232Z,15.30
2022-10-28T00:57:02.861Z,15.88
2022-10-28T00:59:35.404Z,16.27
2022-10-28T01:02:02.143Z,15.25
2022-10-28T01:04:28.845Z,14.52
2022-10-28T01:06:56.352Z,14.70
2022-10-28T01:09:23.052Z,15.25
2022-10-28T01:11:50.263Z,15.18
2022-10-28T01:14:25.984Z,14.93
2022-10-28T01:17:19.169Z,15.00
2022-10-28T01:20:18.634Z,14.82
2022-10-28T01:22:54.267Z,14.10
2022-10-28T01:25:52.128Z,14.60
2022-10-28T01:28:30.795Z,14.27
2022-10-28T01:31:00.175Z,14.05
2022-10-28T01:33:36.473Z,13.80
2022-10-28T01:36:14.670Z,13.50
2022-10-28T01:38:55.809Z,14.13
2022-10-28T01:41:28.350Z,13.45
2022-10-28T01:44:28.463Z,13.52
2022-10-28T01:47:07.791Z,12.80
2022-10-28T01:49:50.187Z,13.50
2022-10-28T01:52:19.068Z,13.70
2022-10-28T01:54:50.238Z,13.55
2022-10-28T01:57:18.332Z,12.63
2022-10-28T01:59:45.832Z,12.63
2022-10-28T02:02:12.509Z,13.65
2022-10-28T02:04:39.110Z,13.38
2022-10-28T02:07:05.710Z,12.95
2022-10-28T02:09:47.493Z,12.55
2022-10-28T02:12:19.148Z,12.63
2022-10-28T02:14:52.286Z,12.82
2022-10-28T02:17:18.878Z,12.15
2022-10-28T02:19:53.758Z,12.82
2022-10-28T02:22:28.536Z,12.07
2022-10-28T02:25:15.113Z,12.20
2022-10-28T02:27:58.568Z,12.30
2022-10-28T02:30:40.257Z,12.25
2022-10-28T02:33:11.887Z,12.32
2022-10-28T02:35:55.074Z,12.23
2022-10-28T02:38:27.506Z,12.15
2022-10-28T02:40:57.881Z,11.60
2022-10-28T02:43:25.014Z,12.00
2022-10-28T02:45:54.898Z,11.77
2022-10-28T02:48:30.532Z,11.88
2022-10-28T02:51:02.922Z,11.48
2022-10-28T02:53:32.561Z,11.43
2022-10-28T02:56:00.782Z,11.90
2022-10-28T02:58:27.536Z,11.25
2022-10-28T03:00:54.249Z,10.90
2022-10-28T03:03:20.916Z,11.10
2022-10-28T03:05:47.488Z,10.85
2022-10-28T03:08:14.074Z,10.57
2022-10-28T03:10:40.726Z,10.52
2022-10-28T03:13:07.375Z,10.85
2022-10-28T03:15:34.047Z,10.43
2022-10-28T03:18:00.618Z,10.30
2022-10-28T03:20:27.188Z,10.55
2022-10-28T03:22:54.084Z,10.93
2022-10-28T03:25:20.837Z,11.00
2022-10-28T03:27:47.399Z,10.73
2022-10-28T03:30:14.671Z,9.93
2022-10-28T03:32:42.703Z,10.00
2022-10-28T03:35:09.740Z,9.82
2022-10-28T03:37:36.592Z,9.63
2022-10-28T03:40:07.823Z,10.00
2022-10-28T03:42:36.448Z,10.13
2022-10-28T03:45:06.156Z,9.50
2022-10-28T03:47:33.536Z,10.02
2022-10-28T03:50:00.093Z,9.32
2022-10-28T03:52:26.684Z,9.80
2022-10-28T03:54:53.314Z,9.75
2022-10-28T03:57:19.974Z,8.90
2022-10-28T03:59:46.566Z,9.25
2022-10-28T04:02:13.345Z,9.80
2022-10-28T04:04:39.977Z,9.00
2022-10-28T04:07:06.949Z,9.10
2022-10-28T04:09:33.599Z,9.00
2022-10-28T04:12:00.228Z,8.80
2022-10-28T04:14:26.840Z,8.55
2022-10-28T04:16:53.555Z,8.07
2022-10-28T04:19:20.275Z,8.70
2022-10-28T04:21:46.862Z,8.50
2022-10-28T04:24:13.442Z,8.93
2022-10-28T04:26:40.071Z,8.60
2022-10-28T04:29:06.698Z,8.27
2022-10-28T04:31:33.403Z,7.60
2022-10-28T04:33:59.984Z,8.05
2022-10-28T04:36:26.586Z,7.85
2022-10-28T04:38:53.181Z,8.63
2022-10-28T04:41:19.759Z,7.95
2022-10-28T04:43:46.358Z,7.80
2022-10-28T04:46:12.927Z,7.70
2022-10-28T04:48:39.639Z,8.15
2022-10-28T04:51:06.343Z,8.10
2022-10-28T04:53:32.972Z,7.78
2022-10-28T04:56:00.110Z,7.70
2022-10-28T04:58:26.911Z,7.20
2022-10-28T05:00:53.480Z,7.32
2022-10-28T05:03:20.191Z,7.75
2022-10-28T05:05:47.572Z,7.80
2022-10-28T05:08:14.622Z,7.47
2022-10-28T05:10:41.252Z,7.40
2022-10-28T05:13:07.892Z,7.32
2022-10-28T05:15:34.495Z,7.18
2022-10-28T05:18:01.124Z,7.03
2022-10-28T05:20:28.067Z,7.28
2022-10-28T05:22:55.799Z,6.80
2022-10-28T05:25:23.286Z,7.20
2022-10-28T05:27:50.847Z,6.78
2022-10-28T05:30:17.687Z,7.07
2022-10-28T05:32:44.330Z,6.93
2022-10-28T05:35:11.498Z,6.90
2022-10-28T05:37:38.181Z,7.10
2022-10-28T05:40:05.142Z,7.85
2022-10-28T05:42:31.701Z,7.20
2022-10-28T05:44:58.421Z,6.72
2022-10-28T05:47:24.994Z,6.50
2022-10-28T05:49:51.612Z,6.93
2022-10-28T05:52:18.202Z,6.70
2022-10-28T05:54:44.805Z,6.80
2022-10-28T05:57:11.476Z,6.65
2022-10-28T05:59:38.155Z,6.90
2022-10-28T06:02:04.745Z,6.35
2022-10-28T06:04:32.925Z,6.35
2022-10-28T06:07:00.456Z,6.60
2022-10-28T06:09:28.892Z,6.55
2022-10-28T06:11:54.004Z,6.40
2022-10-28T06:14:20.593Z,6.15
2022-10-28T06:16:47.151Z,6.20
2022-10-28T06:19:13.814Z,6.43
2022-10-28T06:21:40.433Z,6.13
2022-10-28T06:24:11.227Z,5.97
2022-10-28T06:26:39.487Z,5.82
2022-10-28T06:29:09.040Z,6.05
2022-10-28T06:31:39.830Z,5.95
2022-10-28T06:34:08.013Z,5.93
2022-10-28T06:36:34.927Z,6.10
2022-10-28T06:39:01.611Z,5.50
2022-10-28T06:41:28.322Z,5.65
2022-10-28T06:43:55.014Z,5.72
2022-10-28T06:46:21.657Z,5.82
2022-10-28T06:48:49.823Z,5.60
2022-10-28T06:51:19.463Z,5.70
2022-10-28T06:53:52.611Z,5.72
2022-10-28T06:56:19.705Z,5.65
2022-10-28T06:58:50.861Z,5.63
2022-10-28T07:01:17.752Z,5.53
2022-10-28T07:03:44.896Z,5.50
2022-10-28T07:06:11.545Z,5.35
2022-10-28T07:08:38.242Z,5.40
2022-10-28T07:11:05.068Z,5.55
2022-10-28T07:22:16.460Z,5.13
2022-10-28T07:24:43.101Z,5.60
2022-10-28T07:27:09.921Z,5.47
2022-10-28T07:29:36.503Z,5.13
2022-10-28T07:32:03.236Z,5.05
2022-10-28T07:34:30.235Z,5.07
2022-10-28T07:36:57.074Z,4.78
2022-10-28T07:39:23.875Z,4.95
2022-10-28T07:41:50.523Z,5.00
2022-10-28T07:44:17.361Z,5.15
2022-10-28T07:46:43.972Z,4.70
2022-10-28T07:49:10.531Z,4.80
2022-10-28T07:51:37.152Z,5.15
2022-10-28T07:54:03.901Z,5.00
2022-10-28T07:56:30.452Z,4.60
2022-10-28T07:58:57.048Z,4.93
2022-10-28T08:01:23.724Z,4.68
2022-10-28T08:03:50.452Z,4.18
2022-10-28T08:06:20.512Z,5.40
2022-10-28T08:08:48.749Z,5.05
2022-10-28T08:11:19.096Z,5.10
2022-10-28T08:13:46.244Z,6.05
2022-10-28T08:16:12.860Z,25.08
2022-10-28T08:19:07.776Z,27.00
2022-10-28T08:21:37.427Z,14.18
2022-10-28T08:24:06.421Z,10.38
2022-10-28T08:26:33.982Z,8.43
2022-10-28T08:29:03.793Z,9.88
2022-10-28T08:31:34.815Z,10.00
2022-10-28T08:34:18.452Z,9.57
2022-10-28T08:37:12.880Z,10.18
2022-10-28T08:40:11.291Z,9.52
2022-10-28T08:43:26.350Z,10.10
2022-10-28T08:46:07.901Z,9.57
2022-10-28T08:48:46.048Z,9.07
2022-10-28T08:51:55.747Z,9.52
2022-10-28T08:54:42.828Z,9.20
2022-10-28T08:57:18.054Z,8.88
2022-10-28T08:59:45.724Z,8.68
2022-10-28T09:02:23.115Z,9.00
2022-10-28T09:05:25.947Z,9.13
2022-10-28T09:07:53.328Z,8.93
2022-10-28T09:10:51.093Z,8.02
2022-10-28T09:13:28.891Z,8.48
2022-10-28T09:16:09.326Z,8.02
2022-10-28T09:19:04.993Z,7.68
2022-10-28T09:21:47.362Z,7.68
2022-10-28T09:24:37.250Z,7.72
2022-10-28T09:27:13.267Z,7.70
2022-10-28T09:29:58.243Z,7.57
2022-10-28T09:32:40.199Z,7.32
2022-10-28T09:35:12.652Z,7.15
2022-10-28T09:37:42.084Z,7.50
2022-10-28T09:40:22.137Z,7.25
2022-10-28T09:43:05.124Z,7.65
2022-10-28T09:45:32.755Z,7.63
2022-10-28T09:48:26.680Z,6.88
2022-10-28T09:50:54.946Z,7.38
2022-10-28T09:53:33.685Z,6.90
2022-10-28T09:56:03.225Z,7.20
2022-10-28T09:58:29.840Z,7.10
2022-10-28T10:00:57.100Z,6.60
2022-10-28T10:03:23.713Z,6.65
2022-10-28T10:05:53.183Z,6.57
2022-10-28T10:08:20.708Z,6.30
2022-10-28T10:14:58.644Z,6.78
2022-10-28T10:17:49.676Z,5.85
2022-10-28T10:21:18.506Z,6.78
2022-10-28T10:23:48.918Z,6.15
2022-10-28T10:26:16.895Z,5.95
2022-10-28T10:28:48.692Z,6.05
2022-10-28T10:31:23.095Z,6.32
2022-10-28T10:33:54.504Z,5.90
2022-10-28T10:36:23.727Z,5.90
2022-10-28T10:39:17.985Z,5.75
2022-10-28T10:41:48.597Z,5.85
2022-10-28T10:44:23.025Z,5.72
2022-10-28T10:47:11.185Z,5.60
2022-10-28T10:50:04.413Z,5.63
2022-10-28T10:52:32.795Z,5.82
2022-10-28T10:55:05.771Z,5.50
2022-10-28T10:57:33.332Z,5.90
2022-10-28T11:00:00.326Z,5.60
2022-10-28T11:02:40.626Z,5.70
2022-10-28T11:05:09.716Z,5.53
2022-10-28T11:07:37.912Z,5.13
2022-10-28T11:10:05.313Z,5.28
2022-10-28T11:12:37.471Z,5.20
2022-10-28T11:15:16.204Z,5.00
2022-10-28T11:17:55.077Z,5.18
2022-10-28T11:20:25.604Z,5.43
2022-10-28T11:23:07.367Z,5.20
2022-10-28T11:25:49.782Z,5.18
2022-10-28T11:28:34.899Z,5.25
2022-10-28T11:31:13.570Z,5.18
2022-10-28T11:34:09.311Z,5.20
2022-10-28T11:39:33.680Z,5.05
2022-10-28T11:42:47.570Z,5.07
2022-10-28T11:50:17.700Z,5.00
2022-10-28T11:53:08.647Z,4.88
2022-10-28T11:55:53.362Z,5.07
2022-10-28T11:58:43.770Z,4.53
2022-10-28T12:01:19.430Z,45.65
2022-10-28T12:04:10.734Z,26.00
2022-10-28T12:07:15.402Z,14.60
2022-10-28T12:10:03.543Z,13.88
2022-10-28T12:12:48.638Z,12.25
2022-10-28T12:15:35.022Z,12.65
2022-10-28T12:18:18.797Z,11.48
2022-10-28T12:20:56.443Z,10.38
2022-10-28T12:23:23.955Z,10.75
2022-10-28T12:25:54.885Z,10.10
2022-10-28T12:28:32.771Z,10.27
2022-10-28T12:30:59.630Z,10.35
2022-10-28T12:33:39.834Z,9.52
2022-10-28T12:36:10.048Z,9.38
2022-10-28T12:38:43.392Z,9.70
2022-10-28T12:45:16.495Z,8.35
2022-10-28T12:48:01.977Z,8.13
2022-10-28T12:50:40.193Z,8.52
2022-10-28T12:53:20.012Z,8.30
2022-10-28T12:55:58.848Z,8.15
2022-10-28T12:58:56.812Z,7.75
2022-10-28T13:01:25.980Z,7.80
2022-10-28T13:03:54.903Z,8.00
2022-10-28T13:06:47.541Z,7.80
2022-10-28T13:09:37.999Z,7.57
2022-10-28T13:12:17.005Z,7.53
2022-10-28T13:15:02.242Z,7.45
2022-10-28T13:18:02.582Z,7.38
2022-10-28T13:21:02.213Z,6.55
2022-10-28T13:23:47.936Z,6.80
2022-10-28T13:26:36.049Z,7.13
2022-10-28T13:29:09.950Z,7.10
2022-10-28T13:31:55.629Z,7.32
2022-10-28T13:34:33.640Z,7.30
2022-10-28T13:37:05.954Z,7.00
2022-10-28T13:39:43.058Z,7.05
2022-10-28T13:45:49.529Z,6.53
2022-10-28T13:48:41.213Z,7.35
2022-10-28T13:51:11.247Z,6.65
2022-10-28T13:53:37.822Z,6.13
2022-10-28T13:56:18.650Z,5.20
2022-10-28T13:58:57.077Z,6.20
2022-10-28T14:02:07.439Z,5.47
2022-10-28T14:04:41.602Z,5.30
2022-10-28T14:07:11.495Z,5.65
2022-10-28T14:09:41.158Z,5.38
2022-10-28T14:12:22.753Z,5.20
2022-10-28T14:14:54.949Z,5.57
2022-10-28T14:17:24.162Z,5.03
2022-10-28T14:19:52.005Z,5.20
2022-10-28T14:22:31.182Z,4.93
2022-10-28T14:24:57.852Z,5.25
2022-10-28T14:27:28.780Z,5.00
2022-10-28T14:29:55.328Z,5.43
2022-10-28T14:32:30.952Z,4.72
2022-10-28T14:35:03.638Z,4.85
2022-10-28T14:37:49.225Z,5.30
2022-10-28T14:40:43.813Z,5.20
2022-10-28T14:43:29.375Z,4.57
2022-10-28T14:46:15.885Z,5.18
2022-10-28T14:48:52.562Z,4.72
2022-10-28T14:51:27.682Z,4.88
2022-10-28T14:53:57.662Z,5.05
2022-10-28T14:56:27.180Z,4.80
2022-10-28T14:58:57.596Z,5.13
2022-10-28T15:01:26.915Z,5.10
2022-10-28T15:03:57.046Z,4.75
2022-10-28T15:06:39.459Z,4.88
2022-10-28T15:09:19.550Z,4.70
2022-10-28T15:11:48.706Z,4.60
2022-10-28T15:14:24.437Z,4.60
2022-10-28T15:16:52.020Z,4.55
2022-10-28T15:19:22.115Z,4.60
2022-10-28T15:22:05.915Z,4.68
2022-10-28T15:24:34.112Z,4.50
2022-10-28T15:27:02.161Z,4.60
2022-10-28T15:29:30.133Z,4.03
2022-10-28T15:32:22.393Z,4.70
2022-10-28T15:34:49.963Z,4.20
2022-10-28T15:37:19.910Z,4.50
2022-10-28T15:39:58.606Z,4.30
2022-10-28T15:43:08.453Z,4.55
2022-10-28T15:45:42.210Z,4.35
2022-10-28T15:48:15.210Z,4.47
2022-10-28T15:50:48.785Z,4.55
2022-10-28T15:53:57.122Z,4.22
2022-10-28T15:56:27.845Z,4.15
2022-10-28T15:59:11.017Z,4.30
2022-10-28T16:01:39.875Z,4.30
2022-10-28T16:04:37.049Z,4.13
2022-10-28T16:07:09.100Z,4.00
2022-10-28T16:09:37.846Z,3.97
2022-10-28T16:12:16.216Z,4.28
2022-10-28T16:15:45.848Z,4.07
2022-10-28T16:18:13.190Z,4.28
2022-10-28T16:20:40.806Z,3.58
2022-10-28T16:23:45.419Z,4.03
2022-10-28T16:26:47.533Z,4.22
2022-10-28T16:29:15.925Z,4.25
2022-10-28T16:31:56.065Z,4.15
2022-10-28T16:34:28.608Z,3.53
2022-10-28T16:36:55.413Z,3.90
2022-10-28T16:39:22.294Z,3.88
2022-10-28T16:41:49.234Z,3.92
2022-10-28T16:44:18.155Z,4.28
2022-10-28T16:46:48.023Z,4.03
2022-10-28T16:49:14.964Z,4.43
2022-10-28T16:51:41.784Z,4.05
2022-10-28T16:54:08.786Z,4.22
2022-10-28T16:56:35.596Z,4.35
2022-10-28T16:59:02.762Z,4.30
2022-10-28T17:01:30.114Z,4.72
2022-10-28T17:03:57.126Z,4.47
2022-10-28T17:06:24.068Z,4.55
2022-10-28T17:09:02.760Z,4.75
2022-10-28T17:13:58.437Z,4.53
2022-10-28T17:16:25.644Z,4.85
2022-10-28T17:18:52.387Z,4.60
2022-10-28T17:21:19.268Z,4.47
2022-10-28T17:23:46.043Z,4.60
2022-10-28T17:26:12.941Z,4.80
2022-10-28T17:28:40.057Z,4.68
2022-10-28T17:31:08.185Z,4.63
2022-10-28T17:33:35.406Z,4.45
2022-10-28T17:36:05.480Z,4.35
2022-10-28T17:38:32.271Z,4.13
2022-10-28T17:40:59.164Z,4.70
2022-10-28T17:43:31.800Z,4.55
2022-10-28T17:49:55.526Z,4.40
2022-10-28T17:53:23.212Z,4.30
2022-10-28T17:56:17.832Z,4.28
2022-10-28T17:58:44.795Z,4.63
2022-10-28T18:01:12.123Z,4.28
2022-10-28T18:03:45.449Z,3.92
2022-10-28T18:06:17.769Z,4.53
2022-10-28T18:08:47.716Z,4.25
2022-10-28T18:11:15.862Z,4.20
2022-10-28T18:13:52.989Z,4.30
2022-10-28T18:16:27.633Z,4.43
2022-10-28T18:21:24.778Z,4.47
2022-10-28T18:24:08.950Z,4.45
2022-10-28T18:26:39.752Z,4.18
2022-10-28T18:29:10.210Z,4.40
2022-10-28T18:31:38.237Z,4.20
2022-10-28T18:34:05.181Z,4.32
2022-10-28T18:36:36.843Z,4.43
2022-10-28T18:39:06.899Z,4.40
2022-10-28T18:41:36.202Z,4.50
2022-10-28T18:44:29.206Z,4.43
2022-10-28T18:46:56.125Z,4.60
2022-10-28T18:49:23.109Z,4.20
2022-10-28T18:51:50.017Z,4.40
2022-10-28T18:54:17.405Z,4.40
2022-10-28T18:56:57.524Z,4.40
2022-10-28T19:00:05.170Z,4.30
2022-10-28T19:03:20.720Z,4.70
2022-10-28T19:05:49.936Z,4.72
2022-10-28T19:08:18.895Z,4.40
2022-10-28T19:10:48.661Z,4.53
2022-10-28T19:13:15.598Z,4.38
2022-10-28T19:15:53.016Z,4.53
2022-10-28T19:18:27.734Z,4.13
2022-10-28T19:21:05.781Z,4.45
2022-10-28T19:23:41.172Z,3.80
2022-10-28T19:26:09.221Z,4.40
2022-10-28T19:28:40.590Z,3.88
2022-10-28T19:31:09.928Z,4.00
2022-10-28T19:33:38.437Z,4.55
2022-10-28T19:36:07.621Z,4.07
2022-10-28T19:38:38.525Z,3.80
2022-10-28T19:41:08.250Z,4.47
2022-10-28T19:43:35.829Z,3.95
2022-10-28T19:46:08.013Z,4.07
2022-10-28T19:48:35.012Z,4.20
2022-10-28T19:51:01.990Z,4.00
2022-10-28T19:53:28.939Z,4.20
2022-10-28T19:56:01.323Z,4.05
2022-10-28T19:58:29.059Z,3.60
2022-10-28T20:01:04.942Z,4.10
2022-10-28T20:03:49.170Z,4.20
2022-10-28T20:06:17.762Z,4.25
2022-10-28T20:08:46.584Z,4.13
2022-10-28T20:11:24.885Z,3.92
2022-10-28T20:14:01.031Z,3.78
2022-10-28T20:16:28.289Z,3.75
2022-10-28T20:18:55.964Z,4.10
2022-10-28T20:21:24.247Z,3.70
2022-10-28T20:23:55.327Z,4.15
2022-10-28T20:26:27.368Z,4.00
2022-10-28T20:28:54.821Z,4.00
2022-10-28T20:31:24.114Z,4.15
2022-10-28T20:34:00.633Z,3.80
2022-10-28T20:36:31.662Z,3.92
2022-10-28T20:39:05.647Z,3.70
2022-10-28T20:41:34.316Z,4.10
2022-10-28T20:44:02.677Z,4.00
2022-10-28T20:46:29.801Z,3.90
2022-10-28T20:49:10.726Z,4.10
2022-10-28T20:51:39.823Z,4.03
2022-10-28T20:54:06.777Z,3.97
2022-10-28T20:56:36.426Z,4.03
2022-10-28T20:59:20.585Z,3.90
2022-10-28T21:01:50.063Z,4.20
2022-10-28T21:04:17.758Z,4.40
2022-10-28T21:06:44.736Z,4.45
2022-10-28T21:09:12.322Z,4.32
2022-10-28T21:11:39.245Z,4.90
2022-10-28T21:14:06.210Z,4.60
2022-10-28T21:16:33.097Z,5.20
2022-10-28T21:19:00.228Z,86.10
2022-10-28T21:21:29.494Z,70.78
2022-10-28T21:23:56.424Z,38.10
2022-10-28T21:26:23.352Z,28.05
2022-10-28T21:28:52.153Z,23.23
2022-10-28T21:31:20.563Z,22.48
2022-10-28T21:33:47.653Z,24.67
2022-10-28T21:36:16.696Z,25.92
2022-10-28T21:38:44.150Z,25.23
2022-10-28T21:41:19.198Z,24.60
2022-10-28T21:43:50.855Z,24.33
2022-10-28T21:46:19.153Z,24.75
2022-10-28T21:48:46.620Z,24.50
2022-10-28T21:51:15.582Z,23.10
2022-10-28T21:53:44.008Z,23.40
2022-10-28T21:56:18.032Z,23.38
2022-10-28T21:58:46.615Z,22.83
2022-10-28T22:01:18.480Z,22.35
2022-10-28T22:03:45.572Z,21.95
2022-10-28T22:06:12.495Z,21.35
2022-10-28T22:08:39.439Z,20.90
2022-10-28T22:11:08.487Z,21.02
2022-10-28T22:13:35.424Z,20.92
2022-10-28T22:16:04.824Z,20.67
2022-10-28T22:18:34.092Z,19.80
2022-10-28T22:21:11.938Z,20.25
2022-10-28T22:23:39.388Z,20.25
2022-10-28T22:26:08.580Z,18.85
2022-10-28T22:28:35.621Z,19.20
2022-10-28T22:31:04.620Z,18.98
2022-10-28T22:33:31.964Z,18.67
2022-10-28T22:36:00.206Z,18.83
2022-10-28T22:38:27.453Z,19.25
2022-10-28T22:41:17.441Z,19.02
2022-10-28T22:43:46.091Z,18.50
2022-10-28T22:46:15.183Z,18.30
2022-10-28T22:48:42.152Z,17.50
2022-10-28T22:51:12.084Z,17.73
2022-10-28T22:53:40.635Z,18.17
2022-10-28T22:56:09.404Z,17.38
2022-10-28T22:58:36.249Z,17.58
2022-10-28T23:01:08.272Z,17.13
2022-10-28T23:03:40.443Z,17.40
2022-10-28T23:06:09.475Z,17.08
2022-10-28T23:08:38.311Z,17.05
2022-10-28T23:11:05.900Z,17.13
2022-10-28T23:13:32.883Z,16.58
2022-10-28T23:16:13.240Z,17.27
2022-10-28T23:18:40.508Z,16.40
2022-10-28T23:21:12.202Z,16.05
2022-10-28T23:23:40.093Z,15.80
2022-10-28T23:26:07.691Z,15.30
2022-10-28T23:28:34.618Z,16.17
2022-10-28T23:31:02.987Z,15.18
2022-10-28T23:33:31.050Z,15.65
2022-10-28T23:35:58.702Z,16.00
2022-10-28T23:38:26.150Z,15.40
2022-10-28T23:41:07.140Z,15.20
2022-10-28T23:43:34.721Z,15.50
2022-10-28T23:46:02.072Z,15.55
2022-10-28T23:48:29.570Z,15.02
2022-10-28T23:50:56.627Z,14.85
2022-10-28T23:53:24.320Z,15.50
2022-10-28T23:55:52.060Z,14.80
2022-10-28T23:58:20.523Z,14.63
